createdAt,value
2023-07-24T00:02:15.594Z,18.09
2023-07-24T00:04:45.477Z,18.04
2023-07-24T00:07:14.220Z,18.04
2023-07-24T00:09:42.629Z,18.06
2023-07-24T00:12:11.238Z,18.07
2023-07-24T00:14:39.779Z,18.08
2023-07-24T00:17:08.269Z,18.08
2023-07-24T00:19:38.030Z,18.13
2023-07-24T00:22:08.245Z,18.12
2023-07-24T00:24:36.726Z,18.14
2023-07-24T00:27:05.291Z,18.14
2023-07-24T00:29:33.560Z,18.20
2023-07-24T00:32:01.795Z,18.21
2023-07-24T00:34:30.383Z,18.22
2023-07-24T00:36:58.649Z,18.25
2023-07-24T00:39:30.802Z,18.27
2023-07-24T00:41:59.204Z,18.30
2023-07-24T00:44:27.575Z,18.27
2023-07-24T00:46:57.047Z,18.28
2023-07-24T00:49:25.758Z,18.27
2023-07-24T00:51:54.866Z,18.20
2023-07-24T00:54:24.556Z,18.21
2023-07-24T00:56:54.567Z,18.22
2023-07-24T00:59:24.165Z,18.23
2023-07-24T01:01:52.612Z,18.27
2023-07-24T01:04:21.605Z,18.26
2023-07-24T01:06:50.390Z,18.26
2023-07-24T01:09:18.625Z,18.25
2023-07-24T01:11:50.295Z,18.23
2023-07-24T01:14:25.141Z,18.18
2023-07-24T01:16:56.732Z,18.19
2023-07-24T01:19:38.470Z,18.17
2023-07-24T01:22:16.042Z,18.14
2023-07-24T01:25:06.433Z,18.12
2023-07-24T01:27:36.154Z,18.15
2023-07-24T01:30:04.629Z,18.19
2023-07-24T01:32:33.038Z,18.21
2023-07-24T01:35:01.397Z,18.21
2023-07-24T01:37:32.243Z,18.22
2023-07-24T01:40:01.593Z,18.22
2023-07-24T01:42:30.221Z,18.25
2023-07-24T01:45:07.083Z,18.29
2023-07-24T01:47:35.615Z,18.28
2023-07-24T01:50:03.908Z,18.31
2023-07-24T01:52:32.308Z,18.31
2023-07-24T01:55:00.778Z,18.25
2023-07-24T01:57:29.249Z,18.22
2023-07-24T01:59:57.967Z,18.18
2023-07-24T02:02:27.692Z,18.15
2023-07-24T02:04:57.156Z,18.05
2023-07-24T02:07:25.457Z,17.99
2023-07-24T02:09:53.749Z,17.94
2023-07-24T02:12:22.405Z,17.92
2023-07-24T02:14:52.664Z,17.96
2023-07-24T02:17:21.645Z,17.98
2023-07-24T02:19:52.112Z,17.94
2023-07-24T02:22:20.411Z,17.97
2023-07-24T02:24:49.011Z,17.98
2023-07-24T02:27:28.003Z,17.99
2023-07-24T02:29:59.677Z,17.96
2023-07-24T02:32:28.186Z,17.95
2023-07-24T02:34:57.809Z,17.92
2023-07-24T02:37:26.128Z,17.94
2023-07-24T02:39:54.605Z,17.94
2023-07-24T02:42:22.979Z,17.96
2023-07-24T02:44:54.305Z,18.01
2023-07-24T02:47:23.562Z,18.01
2023-07-24T02:49:51.940Z,18.01
2023-07-24T02:52:21.904Z,18.05
2023-07-24T02:54:50.237Z,18.07
2023-07-24T02:57:18.636Z,18.05
2023-07-24T02:59:47.698Z,18.05
2023-07-24T03:02:16.345Z,18.10
2023-07-24T03:04:44.883Z,18.16
2023-07-24T03:07:14.206Z,18.18
2023-07-24T03:09:43.796Z,18.16
2023-07-24T03:12:12.645Z,18.14
2023-07-24T03:14:41.112Z,18.17
2023-07-24T03:17:09.671Z,18.16
2023-07-24T03:19:38.129Z,18.17
2023-07-24T03:22:06.880Z,18.18
2023-07-24T03:24:36.144Z,18.21
2023-07-24T03:27:07.620Z,18.17
2023-07-24T03:29:35.863Z,18.16
2023-07-24T03:32:04.744Z,18.19
2023-07-24T03:34:32.996Z,18.17
2023-07-24T03:37:01.297Z,18.20
2023-07-24T03:39:29.998Z,18.21
2023-07-24T03:41:58.657Z,18.24
2023-07-24T03:44:30.144Z,18.28
2023-07-24T03:46:58.880Z,18.27
2023-07-24T03:49:27.571Z,18.29
2023-07-24T03:51:55.750Z,18.36
2023-07-24T03:54:24.166Z,18.39
2023-07-24T03:56:53.405Z,18.43
2023-07-24T03:59:21.868Z,18.47
2023-07-24T04:01:52.142Z,18.52
2023-07-24T04:04:20.408Z,18.53
2023-07-24T04:06:50.230Z,18.57
2023-07-24T04:09:18.477Z,18.53
2023-07-24T04:11:47.502Z,18.52
2023-07-24T04:14:16.143Z,18.50
2023-07-24T04:16:44.615Z,18.49
2023-07-24T04:19:14.644Z,18.50
2023-07-24T04:21:43.083Z,18.52
2023-07-24T04:24:11.648Z,18.52
2023-07-24T04:26:40.848Z,18.54
2023-07-24T04:29:09.641Z,18.56
2023-07-24T04:31:37.875Z,18.59
2023-07-24T04:34:07.650Z,18.61
2023-07-24T04:36:37.319Z,18.56
2023-07-24T04:39:05.660Z,18.53
2023-07-24T04:41:34.416Z,18.55
2023-07-24T04:44:03.724Z,18.61
2023-07-24T04:46:32.588Z,18.63
2023-07-24T04:49:01.301Z,18.61
2023-07-24T04:51:29.777Z,18.56
2023-07-24T04:53:59.434Z,18.53
2023-07-24T04:56:27.981Z,18.43
2023-07-24T04:58:56.768Z,18.43
2023-07-24T05:03:59.123Z,18.47
2023-07-24T05:06:27.557Z,18.49
2023-07-24T05:08:56.212Z,18.52
2023-07-24T05:11:24.496Z,18.56
2023-07-24T05:13:52.730Z,18.61
2023-07-24T05:16:21.217Z,18.66
2023-07-24T05:18:49.475Z,18.69
2023-07-24T05:21:19.110Z,18.75
2023-07-24T05:23:47.752Z,18.77
2023-07-24T05:26:16.948Z,18.81
2023-07-24T05:28:45.294Z,18.83
2023-07-24T05:31:15.003Z,18.87
2023-07-24T05:33:43.369Z,18.89
2023-07-24T05:36:11.893Z,18.91
2023-07-24T05:38:41.909Z,18.92
2023-07-24T05:41:10.589Z,18.88
2023-07-24T05:43:39.036Z,18.88
2023-07-24T05:46:07.395Z,18.90
2023-07-24T05:48:35.781Z,18.94
2023-07-24T05:51:04.581Z,18.96
2023-07-24T05:53:32.943Z,18.96
2023-07-24T05:56:03.723Z,18.97
2023-07-24T05:58:32.358Z,18.99
2023-07-24T06:01:00.611Z,18.98
2023-07-24T06:03:29.942Z,18.97
2023-07-24T06:05:58.533Z,19.00
2023-07-24T06:08:28.303Z,19.07
2023-07-24T06:10:56.859Z,19.13
2023-07-24T06:13:26.593Z,19.22
2023-07-24T06:15:56.288Z,19.30
2023-07-24T06:18:24.604Z,19.39
2023-07-24T06:20:55.142Z,19.50
2023-07-24T06:23:23.407Z,19.62
2023-07-24T06:25:53.011Z,19.69
2023-07-24T06:28:21.508Z,19.72
2023-07-24T06:30:54.560Z,19.90
2023-07-24T06:33:23.782Z,20.09
2023-07-24T06:35:53.023Z,20.20
2023-07-24T06:38:22.864Z,20.13
2023-07-24T06:40:51.639Z,20.05
2023-07-24T06:43:20.058Z,20.01
2023-07-24T06:45:48.488Z,19.95
2023-07-24T06:48:18.384Z,19.89
2023-07-24T06:50:46.777Z,19.91
2023-07-24T06:53:15.593Z,19.94
2023-07-24T06:55:44.358Z,20.21
2023-07-24T06:58:13.482Z,20.71
2023-07-24T07:00:41.818Z,21.53
2023-07-24T07:03:10.201Z,21.76
2023-07-24T07:05:40.122Z,21.93
2023-07-24T07:08:08.464Z,21.79
2023-07-24T07:10:38.152Z,21.74
2023-07-24T07:13:06.687Z,22.54
2023-07-24T07:15:35.044Z,24.68
2023-07-24T07:18:03.398Z,25.86
2023-07-24T07:20:31.714Z,25.97
2023-07-24T07:23:01.496Z,25.68
2023-07-24T07:25:29.845Z,26.30
2023-07-24T07:27:58.410Z,26.12
2023-07-24T07:30:26.764Z,25.22
2023-07-24T07:32:57.633Z,24.25
2023-07-24T07:35:25.935Z,23.41
2023-07-24T07:37:57.053Z,22.80
2023-07-24T07:40:28.115Z,22.37
2023-07-24T07:42:56.779Z,22.03
2023-07-24T07:45:25.585Z,21.91
2023-07-24T07:47:54.635Z,22.00
2023-07-24T07:50:23.082Z,22.73
2023-07-24T07:52:52.890Z,24.28
2023-07-24T07:55:21.612Z,24.81
2023-07-24T07:57:51.360Z,25.41
2023-07-24T08:00:20.242Z,25.04
2023-07-24T08:02:48.636Z,24.36
2023-07-24T08:05:21.339Z,23.79
2023-07-24T08:07:50.050Z,24.57
2023-07-24T08:10:18.562Z,25.59
2023-07-24T08:12:46.921Z,25.55
2023-07-24T08:15:16.819Z,25.68
2023-07-24T08:17:45.930Z,26.13
2023-07-24T08:20:14.371Z,26.17
2023-07-24T08:22:42.955Z,26.29
2023-07-24T08:25:11.566Z,25.66
2023-07-24T08:27:54.411Z,24.92
2023-07-24T08:30:30.999Z,24.11
2023-07-24T08:33:00.615Z,23.59
2023-07-24T08:35:29.315Z,23.15
2023-07-24T08:37:57.909Z,23.69
2023-07-24T08:40:26.326Z,25.15
2023-07-24T08:42:55.652Z,26.73
2023-07-24T08:45:25.772Z,27.93
2023-07-24T08:47:55.680Z,28.91
2023-07-24T08:50:25.640Z,28.35
2023-07-24T08:52:54.330Z,27.09
2023-07-24T08:55:23.919Z,25.82
2023-07-24T08:57:52.145Z,25.65
2023-07-24T09:00:21.029Z,25.24
2023-07-24T09:02:49.428Z,24.74
2023-07-24T09:05:19.577Z,24.40
2023-07-24T09:07:49.407Z,24.30
2023-07-24T09:10:18.103Z,25.38
2023-07-24T09:12:46.843Z,26.24
2023-07-24T09:15:15.570Z,26.52
2023-07-24T09:17:51.616Z,26.70
2023-07-24T09:20:32.161Z,25.84
2023-07-24T09:23:15.429Z,24.73
2023-07-24T09:25:46.408Z,23.73
2023-07-24T09:28:15.513Z,23.18
2023-07-24T09:30:53.486Z,22.76
2023-07-24T09:33:21.757Z,22.52
2023-07-24T09:36:01.607Z,22.71
2023-07-24T09:38:29.905Z,23.11
2023-07-24T09:40:59.431Z,23.39
2023-07-24T09:46:01.040Z,22.84
2023-07-24T09:51:03.116Z,22.68
2023-07-24T09:53:35.866Z,22.39
2023-07-24T09:56:06.231Z,22.11
2023-07-24T09:58:36.430Z,22.07
2023-07-24T10:01:07.194Z,22.28
2023-07-24T10:03:37.767Z,22.41
2023-07-24T10:06:11.778Z,22.42
2023-07-24T10:08:41.709Z,22.31
2023-07-24T10:11:10.872Z,22.30
2023-07-24T10:13:40.148Z,22.30
2023-07-24T10:16:09.081Z,22.34
2023-07-24T10:18:43.844Z,22.10
2023-07-24T10:21:14.080Z,21.79
2023-07-24T10:23:44.133Z,21.42
2023-07-24T10:26:12.880Z,21.23
2023-07-24T10:28:43.247Z,21.17
2023-07-24T10:31:22.939Z,21.29
2023-07-24T10:33:52.518Z,21.21
2023-07-24T10:36:24.471Z,21.36
2023-07-24T10:38:56.199Z,21.42
2023-07-24T10:41:24.807Z,21.37
2023-07-24T10:44:01.092Z,21.24
2023-07-24T10:46:39.848Z,21.31
2023-07-24T10:49:10.017Z,21.29
2023-07-24T10:51:42.102Z,21.30
2023-07-24T10:54:10.440Z,21.26
2023-07-24T10:56:39.129Z,21.34
2023-07-24T10:59:08.123Z,21.40
2023-07-24T11:01:36.747Z,21.74
2023-07-24T11:04:06.487Z,21.88
2023-07-24T11:06:35.143Z,21.60
2023-07-24T11:09:05.094Z,21.31
2023-07-24T11:11:35.852Z,21.42
2023-07-24T11:14:05.666Z,21.53
2023-07-24T11:16:34.782Z,21.59
2023-07-24T11:19:03.548Z,21.84
2023-07-24T11:21:32.297Z,22.17
2023-07-24T11:24:01.114Z,22.35
2023-07-24T11:26:30.832Z,22.52
2023-07-24T11:29:00.357Z,22.58
2023-07-24T11:31:28.921Z,22.33
2023-07-24T11:33:58.765Z,22.34
2023-07-24T11:36:27.093Z,22.23
2023-07-24T11:38:55.661Z,22.03
2023-07-24T11:41:24.245Z,21.91
2023-07-24T11:43:53.932Z,21.90
2023-07-24T11:46:26.717Z,21.88
2023-07-24T11:48:57.903Z,21.97
2023-07-24T11:51:28.959Z,21.90
2023-07-24T11:54:08.753Z,21.93
2023-07-24T11:56:37.765Z,21.97
2023-07-24T11:59:15.025Z,22.25
2023-07-24T12:01:43.860Z,22.33
2023-07-24T12:04:12.928Z,22.38
2023-07-24T12:06:41.304Z,22.48
2023-07-24T12:09:09.692Z,22.51
2023-07-24T12:11:45.311Z,22.52
2023-07-24T12:14:16.155Z,22.70
2023-07-24T12:16:44.779Z,22.94
2023-07-24T12:19:13.086Z,23.11
2023-07-24T12:21:41.341Z,22.99
2023-07-24T12:24:10.066Z,22.85
2023-07-24T12:26:38.279Z,22.67
2023-07-24T12:29:06.803Z,22.47
2023-07-24T12:31:37.116Z,22.42
2023-07-24T12:34:05.783Z,22.42
2023-07-24T12:36:33.992Z,22.49
2023-07-24T12:39:02.256Z,22.59
2023-07-24T12:41:30.674Z,22.71
2023-07-24T12:44:01.009Z,22.78
2023-07-24T12:46:29.641Z,22.75
2023-07-24T12:48:59.383Z,22.65
2023-07-24T12:51:27.842Z,22.73
2023-07-24T12:54:05.205Z,22.82
2023-07-24T12:56:44.418Z,22.56
2023-07-24T12:59:12.964Z,22.48
2023-07-24T13:01:41.308Z,22.63
2023-07-24T13:04:11.569Z,22.65
2023-07-24T13:06:40.127Z,22.63
2023-07-24T13:09:10.054Z,22.69
2023-07-24T13:11:38.304Z,22.76
2023-07-24T13:14:06.594Z,22.72
2023-07-24T13:16:35.035Z,22.62
2023-07-24T13:19:03.747Z,22.55
2023-07-24T13:21:33.756Z,22.67
2023-07-24T13:24:02.103Z,22.74
2023-07-24T13:26:30.658Z,22.63
2023-07-24T13:28:59.331Z,22.54
2023-07-24T13:31:29.824Z,22.40
2023-07-24T13:33:58.284Z,22.24
2023-07-24T13:36:28.724Z,22.20
2023-07-24T13:38:58.597Z,22.23
2023-07-24T13:41:27.081Z,22.22
2023-07-24T13:43:55.604Z,22.27
2023-07-24T13:46:24.020Z,22.33
2023-07-24T13:48:53.662Z,22.29
2023-07-24T13:51:22.050Z,22.29
2023-07-24T13:53:52.925Z,22.26
2023-07-24T13:56:24.347Z,22.02
2023-07-24T13:58:52.554Z,21.94
2023-07-24T14:01:21.025Z,21.81
2023-07-24T14:03:49.471Z,21.71
2023-07-24T14:06:18.118Z,21.74
2023-07-24T14:08:46.543Z,21.89
2023-07-24T14:11:14.929Z,22.10
2023-07-24T14:13:46.266Z,22.23
2023-07-24T14:16:14.747Z,22.33
2023-07-24T14:18:43.180Z,22.23
2023-07-24T14:21:11.602Z,22.15
2023-07-24T14:23:39.854Z,22.54
2023-07-24T14:26:08.423Z,22.74
2023-07-24T14:28:36.738Z,22.60
2023-07-24T14:31:06.755Z,22.38
2023-07-24T14:33:35.021Z,22.20
2023-07-24T14:36:04.109Z,22.10
2023-07-24T14:38:32.389Z,22.11
2023-07-24T14:41:00.980Z,22.13
2023-07-24T14:43:29.308Z,22.14
2023-07-24T14:45:57.881Z,22.33
2023-07-24T14:48:27.542Z,22.46
2023-07-24T14:50:56.150Z,22.43
2023-07-24T14:53:24.786Z,22.72
2023-07-24T14:55:53.147Z,22.78
2023-07-24T14:58:21.488Z,22.62
2023-07-24T15:00:50.367Z,22.65
2023-07-24T15:03:18.902Z,22.76
2023-07-24T15:05:48.714Z,22.76
2023-07-24T15:08:17.904Z,22.80
2023-07-24T15:10:46.369Z,22.94
2023-07-24T15:13:16.006Z,22.95
2023-07-24T15:15:44.836Z,22.79
2023-07-24T15:18:13.192Z,22.67
2023-07-24T15:20:41.663Z,22.61
2023-07-24T15:23:11.821Z,22.54
2023-07-24T15:25:40.174Z,22.62
2023-07-24T15:28:08.519Z,22.63
2023-07-24T15:30:36.962Z,22.60
2023-07-24T15:33:05.455Z,22.56
2023-07-24T15:35:33.856Z,22.53
2023-07-24T15:38:04.597Z,22.49
2023-07-24T15:40:35.270Z,22.61
2023-07-24T15:43:05.376Z,22.38
2023-07-24T15:45:33.803Z,22.35
2023-07-24T15:48:02.342Z,22.39
2023-07-24T15:50:30.676Z,22.29
2023-07-24T15:52:59.202Z,22.00
2023-07-24T15:55:27.606Z,21.77
2023-07-24T15:57:58.510Z,21.51
2023-07-24T16:00:28.377Z,21.31
2023-07-24T16:02:56.758Z,21.15
2023-07-24T16:05:25.979Z,21.02
2023-07-24T16:07:54.368Z,20.88
2023-07-24T16:10:23.916Z,20.74
2023-07-24T16:12:52.300Z,20.54
2023-07-24T16:15:44.104Z,20.41
2023-07-24T16:18:10.626Z,20.48
2023-07-24T16:20:39.002Z,20.56
2023-07-24T16:23:09.308Z,20.58
2023-07-24T16:25:37.560Z,20.47
2023-07-24T16:28:06.030Z,20.36
2023-07-24T16:30:36.462Z,20.25
2023-07-24T16:33:04.960Z,20.18
2023-07-24T16:35:33.690Z,20.13
2023-07-24T16:38:16.009Z,20.06
2023-07-24T16:40:45.836Z,19.80
2023-07-24T16:43:14.501Z,19.59
2023-07-24T16:46:04.308Z,19.62
2023-07-24T16:48:33.627Z,19.64
2023-07-24T16:51:01.925Z,19.59
2023-07-24T16:53:30.477Z,19.60
2023-07-24T16:55:58.751Z,19.50
2023-07-24T16:58:27.080Z,19.45
2023-07-24T17:00:57.012Z,19.43
2023-07-24T17:03:25.777Z,19.50
2023-07-24T17:06:52.154Z,19.63
2023-07-24T17:24:29.871Z,19.24
2023-07-24T17:32:00.801Z,19.07
2023-07-24T17:39:17.674Z,19.22
2023-07-24T17:53:23.049Z,19.05
2023-07-24T18:00:03.802Z,18.83
2023-07-24T18:06:59.835Z,18.83
2023-07-24T18:13:45.748Z,18.73
2023-07-24T18:20:28.743Z,18.57
2023-07-24T18:34:08.785Z,18.58
2023-07-24T18:40:50.759Z,18.56
2023-07-24T18:47:32.872Z,18.49
2023-07-24T18:54:15.715Z,18.61
2023-07-24T19:04:26.673Z,18.49
2023-07-24T19:14:42.669Z,18.30
2023-07-24T19:21:25.693Z,18.21
2023-07-24T19:28:06.740Z,18.13
2023-07-24T19:34:51.649Z,18.13
2023-07-24T19:45:02.666Z,18.05
2023-07-24T19:51:45.602Z,18.02
2023-07-24T19:58:33.750Z,17.89
2023-07-24T20:05:16.623Z,17.76
2023-07-24T20:12:08.616Z,17.66
2023-07-24T20:18:52.584Z,17.57
2023-07-24T20:29:03.558Z,17.56
2023-07-24T20:35:44.606Z,17.54
2023-07-24T20:45:57.605Z,17.46
2023-07-24T20:52:39.537Z,17.34
2023-07-24T20:59:22.530Z,17.21
2023-07-24T21:20:11.480Z,16.66
2023-07-24T21:26:53.477Z,16.60
2023-07-24T21:33:37.488Z,16.58
2023-07-24T21:40:20.494Z,16.49
2023-07-24T21:47:01.489Z,16.34
2023-07-24T21:57:14.480Z,16.19
2023-07-24T22:03:56.463Z,16.22
2023-07-24T22:10:45.460Z,16.30
2023-07-24T22:17:28.454Z,16.28
2023-07-24T22:24:11.434Z,16.34
2023-07-24T22:30:53.470Z,16.38
2023-07-24T22:37:35.439Z,16.43
2023-07-24T22:47:48.391Z,16.51
2023-07-24T22:54:31.410Z,16.57
2023-07-24T23:01:14.465Z,16.59
2023-07-24T23:07:58.024Z,16.58
2023-07-24T23:25:13.352Z,16.57
2023-07-24T23:31:56.288Z,16.60
2023-07-24T23:38:37.334Z,16.60
2023-07-24T23:55:46.257Z,16.56
